Time;durP1;ratioP1;P1;durP2;ratioP2;P2;SDS_P1;SDS_P2;PMS_P1;PMS_P2;Temp;Humidity;BMP_temperature;BMP_pressure;BME280_temperature;BME280_humidity;BME280_pressure;Samples;Min_cycle;Max_cycle;Signal;HPM_P1;HPM_P2
2022/08/18 00:01:15;;;;;;;39.47;35.03;;;;;;;19.93;100.00;101120.28;5092672;28;20047;-57
2022/08/18 00:03:46;;;;;;;39.17;34.90;;;;;;;20.04;100.00;101123.69;5092538;28;20048;-61
2022/08/18 00:06:31;;;;;;;39.13;34.75;;;;;;;19.92;100.00;101128.47;5090969;28;20056;-58
2022/08/18 00:09:04;;;;;;;38.80;34.63;;;;;;;19.95;100.00;101121.94;5092330;28;20048;-58
2022/08/18 00:11:35;;;;;;;38.97;33.88;;;;;;;19.98;100.00;101119.81;5092711;28;20502;-61
2022/08/18 00:14:12;;;;;;;36.35;31.60;;;;;;;19.99;100.00;101112.63;5092590;28;20155;-58
2022/08/18 00:16:52;;;;;;;36.25;32.28;;;;;;;19.94;100.00;101121.13;5091847;28;20121;-61
2022/08/18 00:19:21;;;;;;;36.05;31.10;;;;;;;19.92;100.00;101118.59;5091693;28;20055;-58
2022/08/18 00:22:13;;;;;;;36.85;31.02;;;;;;;19.91;100.00;101127.59;5090591;28;20047;-58
2022/08/18 00:24:44;;;;;;;37.40;32.05;;;;;;;19.86;100.00;101127.22;5091870;28;20044;-62
2022/08/18 00:27:20;;;;;;;34.10;30.40;;;;;;;19.84;100.00;101118.53;5092096;28;20605;-62
2022/08/18 00:29:50;;;;;;;35.72;31.90;;;;;;;19.87;100.00;101125.41;5091627;28;20074;-58
2022/08/18 00:32:21;;;;;;;33.28;29.88;;;;;;;19.80;100.00;101133.19;5091617;28;20059;-60
2022/08/18 00:34:49;;;;;;;32.25;28.85;;;;;;;19.74;100.00;101131.94;5092010;28;20048;-62
2022/08/18 00:37:19;;;;;;;30.73;27.42;;;;;;;19.72;100.00;101133.91;5091910;28;20109;-62
2022/08/18 00:39:47;;;;;;;34.25;29.65;;;;;;;19.71;100.00;101129.56;5091762;28;20475;-62
2022/08/18 00:42:18;;;;;;;32.03;28.30;;;;;;;19.66;100.00;101123.88;5091626;28;20048;-62
2022/08/18 00:45:00;;;;;;;33.70;27.77;;;;;;;19.71;100.00;101118.88;5091306;28;20144;-62
2022/08/18 00:47:30;;;;;;;32.67;28.38;;;;;;;19.73;100.00;101129.44;5092324;28;20048;-57
2022/08/18 00:50:12;;;;;;;31.52;27.85;;;;;;;19.77;100.00;101131.63;5091019;28;20511;-62
2022/08/18 00:52:50;;;;;;;33.42;26.85;;;;;;;19.75;100.00;101122.91;5092072;28;20092;-61
2022/08/18 00:55:21;;;;;;;31.73;28.35;;;;;;;19.70;100.00;101127.91;5093347;28;20052;-57
2022/08/18 00:57:52;;;;;;;30.92;27.63;;;;;;;19.74;100.00;101133.75;5095317;28;20044;-57
2022/08/18 01:00:21;;;;;;;32.60;28.58;;;;;;;19.79;100.00;101144.81;5095580;28;20713;-57
2022/08/18 01:02:54;;;;;;;32.63;29.15;;;;;;;19.69;100.00;101136.88;5095674;28;20048;-61
2022/08/18 01:05:27;;;;;;;31.45;28.17;;;;;;;19.72;100.00;101139.25;5095992;28;20071;-57
2022/08/18 01:07:57;;;;;;;31.50;27.08;;;;;;;19.71;100.00;101134.91;5095842;28;20043;-61
2022/08/18 01:10:25;;;;;;;30.98;27.67;;;;;;;19.76;100.00;101131.78;5095105;28;20063;-58
2022/08/18 01:12:58;;;;;;;31.48;28.13;;;;;;;19.79;100.00;101130.66;5095255;28;20044;-58
2022/08/18 01:15:28;;;;;;;31.33;27.80;;;;;;;19.79;100.00;101130.66;5095328;28;20047;-57
2022/08/18 01:23:45;;;;;;;29.75;26.50;;;;;;;19.64;100.00;101144.50;5079617;28;20064;-57
2022/08/18 01:26:15;;;;;;;32.28;27.20;;;;;;;19.66;100.00;101147.03;5095023;28;20048;-57
2022/08/18 01:28:45;;;;;;;31.20;27.85;;;;;;;19.64;100.00;101147.19;5095228;28;20499;-62
2022/08/18 01:31:31;;;;;;;30.30;26.08;;;;;;;19.69;100.00;101144.06;5095099;28;20402;-61
2022/08/18 01:33:59;;;;;;;31.38;26.55;;;;;;;19.57;100.00;101138.94;5095048;28;20048;-58
2022/08/18 01:36:28;;;;;;;28.90;25.67;;;;;;;19.57;100.00;101140.78;5094860;28;20044;-60
2022/08/18 01:38:58;;;;;;;28.50;25.50;;;;;;;19.42;100.00;101135.97;5094811;28;20039;-57
2022/08/18 01:41:27;;;;;;;28.33;25.15;;;;;;;19.45;100.00;101136.66;5094756;28;20032;-61
2022/08/18 01:43:59;;;;;;;28.37;24.13;;;;;;;19.43;100.00;101134.16;5094391;28;20154;-61
2022/08/18 01:46:28;;;;;;;26.30;22.80;;;;;;;19.41;100.00;101141.44;5094588;28;20073;-58
2022/08/18 01:49:00;;;;;;;25.80;22.67;;;;;;;19.35;100.00;101148.22;5094463;28;20089;-58
2022/08/18 01:51:30;;;;;;;25.08;21.13;;;;;;;19.37;100.00;101151.59;5094340;28;20121;-57
2022/08/18 01:54:10;;;;;;;25.63;22.08;;;;;;;19.32;100.00;101153.88;5094497;28;20048;-61
2022/08/18 01:56:39;;;;;;;24.80;20.60;;;;;;;19.33;100.00;101155.53;5094761;28;20510;-61
2022/08/18 01:59:09;;;;;;;22.33;19.92;;;;;;;19.36;100.00;101157.91;5093989;28;20112;-57
2022/08/18 02:01:38;;;;;;;22.88;18.90;;;;;;;19.41;100.00;101158.31;5094301;28;20048;-57
2022/08/18 02:04:17;;;;;;;23.33;19.67;;;;;;;19.32;100.00;101158.34;5094186;28;20130;-57
2022/08/18 02:07:06;;;;;;;21.75;18.85;;;;;;;19.11;100.00;101158.59;5093738;28;20128;-60
2022/08/18 02:09:38;;;;;;;22.63;19.10;;;;;;;19.18;100.00;101162.34;5094380;28;20123;-58
2022/08/18 02:12:07;;;;;;;20.98;18.67;;;;;;;19.18;100.00;101157.03;5093775;28;20055;-58
2022/08/18 02:14:36;;;;;;;23.77;19.05;;;;;;;19.25;100.00;101163.44;5093979;28;20097;-57
2022/08/18 02:17:06;;;;;;;21.58;18.85;;;;;;;19.30;100.00;101157.66;5093981;28;20036;-62
2022/08/18 02:19:37;;;;;;;20.15;17.45;;;;;;;19.28;100.00;101165.81;5093676;28;20051;-58
2022/08/18 02:22:08;;;;;;;20.52;18.30;;;;;;;19.19;100.00;101156.03;5093479;28;20407;-60
2022/08/18 02:24:38;;;;;;;19.60;17.38;;;;;;;19.21;100.00;101160.25;5093540;28;20052;-58
2022/08/18 02:27:07;;;;;;;19.52;17.52;;;;;;;19.18;100.00;101154.34;5093579;28;20098;-62
2022/08/18 02:29:36;;;;;;;19.95;16.65;;;;;;;19.16;100.00;101153.69;5093209;28;20056;-57
2022/08/18 02:32:05;;;;;;;19.95;16.45;;;;;;;19.10;100.00;101144.44;5093456;28;20033;-62
2022/08/18 02:34:33;;;;;;;20.52;16.38;;;;;;;19.14;100.00;101144.97;5093634;28;20058;-60
2022/08/18 02:37:03;;;;;;;20.90;17.48;;;;;;;19.05;100.00;101152.06;5093595;28;20048;-57
2022/08/18 02:39:36;;;;;;;18.80;16.65;;;;;;;19.06;100.00;101149.22;5093610;28;20129;-58
2022/08/18 02:42:07;;;;;;;20.13;16.38;;;;;;;19.06;100.00;101143.91;5093392;28;20055;-57
2022/08/18 02:44:36;;;;;;;19.90;16.10;;;;;;;18.86;100.00;101148.44;5093399;28;20059;-61
2022/08/18 02:47:04;;;;;;;19.08;15.60;;;;;;;18.86;100.00;101152.94;5093520;28;20056;-57
2022/08/18 02:49:32;;;;;;;19.30;16.52;;;;;;;18.89;100.00;101158.00;5093674;28;20146;-61
2022/08/18 02:52:00;;;;;;;18.17;14.73;;;;;;;18.87;100.00;101160.78;5093356;28;20139;-61
2022/08/18 02:54:29;;;;;;;17.75;15.20;;;;;;;18.82;100.00;101168.38;5093425;28;20048;-57
2022/08/18 02:56:57;;;;;;;18.65;15.68;;;;;;;18.82;100.00;101168.38;5093489;28;20464;-58
2022/08/18 02:59:27;;;;;;;20.73;17.33;;;;;;;18.67;100.00;101169.84;5093636;28;20047;-58
2022/08/18 03:02:01;;;;;;;19.63;17.30;;;;;;;18.66;100.00;101174.31;5093204;28;20055;-60
2022/08/18 03:04:31;;;;;;;19.60;15.38;;;;;;;18.79;100.00;101173.16;5093246;28;20465;-58
2022/08/18 03:07:01;;;;;;;18.65;15.20;;;;;;;18.82;100.00;101176.38;5093071;28;20132;-57
2022/08/18 03:09:30;;;;;;;18.02;15.38;;;;;;;18.88;100.00;101178.50;5093155;28;20379;-61
2022/08/18 03:12:03;;;;;;;18.52;14.73;;;;;;;18.88;100.00;101178.50;5092973;28;20052;-57
2022/08/18 03:14:33;;;;;;;19.50;15.30;;;;;;;18.94;100.00;101171.75;5093240;28;20509;-57
2022/08/18 03:17:01;;;;;;;17.95;14.27;;;;;;;18.94;100.00;101173.53;5093143;28;20044;-58
2022/08/18 03:19:29;;;;;;;17.40;14.40;;;;;;;18.93;100.00;101170.06;5092304;28;20398;-60
2022/08/18 03:21:59;;;;;;;18.88;14.88;;;;;;;18.81;100.00;101179.19;5092842;28;20054;-58
2022/08/18 03:24:31;;;;;;;19.17;15.30;;;;;;;18.93;100.00;101172.72;5091713;28;20578;-60
2022/08/18 03:27:04;;;;;;;17.13;13.70;;;;;;;18.92;100.00;101174.56;5092810;28;20430;-60
2022/08/18 03:29:35;;;;;;;17.73;14.93;;;;;;;19.02;100.00;101174.50;5092832;28;20055;-57
2022/08/18 03:32:05;;;;;;;16.77;13.43;;;;;;;19.01;100.00;101178.16;5092599;28;20044;-58
2022/08/18 03:34:34;;;;;;;20.45;13.98;;;;;;;19.04;100.00;101172.50;5092933;28;20399;-62
2022/08/18 03:37:02;;;;;;;18.85;14.43;;;;;;;19.04;100.00;101169.03;5091465;28;20079;-58
2022/08/18 03:39:30;;;;;;;17.27;13.32;;;;;;;19.03;100.00;101170.00;5092523;28;20058;-61
2022/08/18 03:41:58;;;;;;;19.17;12.85;;;;;;;19.07;100.00;101169.56;5092800;28;20048;-58
2022/08/18 03:44:47;;;;;;;18.23;14.52;;;;;;;19.03;100.00;101178.84;5092630;28;20136;-62
2022/08/18 03:47:18;;;;;;;18.05;14.20;;;;;;;18.97;100.00;101179.44;5089931;28;20052;-58
2022/08/18 03:49:46;;;;;;;15.95;12.73;;;;;;;18.88;100.00;101178.50;5091404;28;20040;-61
2022/08/18 03:52:15;;;;;;;18.95;13.65;;;;;;;18.86;100.00;101179.59;5090786;28;20036;-61
2022/08/18 03:54:43;;;;;;;17.25;13.73;;;;;;;18.90;100.00;101175.69;5090929;28;20040;-57
2022/08/18 03:57:12;;;;;;;16.00;12.82;;;;;;;18.98;100.00;101172.25;5091283;28;20051;-58
2022/08/18 03:59:42;;;;;;;21.05;14.23;;;;;;;18.99;100.00;101171.28;5091584;28;20055;-61
2022/08/18 04:02:11;;;;;;;17.10;12.38;;;;;;;19.04;100.00;101171.69;5091374;28;20046;-61
2022/08/18 04:04:39;;;;;;;16.13;12.98;;;;;;;19.01;100.00;101162.16;5090891;28;20441;-58
2022/08/18 04:07:15;;;;;;;16.10;12.07;;;;;;;19.01;100.00;101162.16;5092191;28;20055;-61
2022/08/18 04:09:44;;;;;;;16.33;12.80;;;;;;;19.03;100.00;101160.19;5092183;28;20097;-56
2022/08/18 04:12:15;;;;;;;22.02;13.63;;;;;;;18.98;100.00;101164.25;5091945;28;20047;-57
2022/08/18 04:14:48;;;;;;;14.95;12.15;;;;;;;18.94;100.00;101155.75;5092396;28;20048;-61
2022/08/18 04:17:23;;;;;;;17.73;13.00;;;;;;;18.83;100.00;101158.53;5092511;28;20075;-61
2022/08/18 04:19:52;;;;;;;17.48;14.15;;;;;;;18.85;100.00;101164.59;5092180;28;20126;-61
2022/08/18 04:22:21;;;;;;;18.88;12.95;;;;;;;18.79;100.00;101159.81;5091594;28;20105;-59
2022/08/18 04:24:50;;;;;;;15.63;12.05;;;;;;;18.81;100.00;101157.88;5091974;28;20511;-60
2022/08/18 04:27:20;;;;;;;18.05;13.57;;;;;;;18.80;100.00;101162.38;5091750;28;20048;-61
2022/08/18 04:29:50;;;;;;;16.65;12.10;;;;;;;18.75;100.00;101173.44;5092821;28;20113;-61
2022/08/18 04:32:18;;;;;;;17.67;13.07;;;;;;;18.73;100.00;101174.56;5095927;28;20051;-61
2022/08/18 04:34:46;;;;;;;16.20;12.48;;;;;;;18.71;100.00;101176.56;5094761;28;20063;-56
2022/08/18 04:37:15;;;;;;;16.05;11.43;;;;;;;18.71;100.00;101177.38;5095765;28;20070;-61
2022/08/18 04:39:43;;;;;;;14.80;10.98;;;;;;;18.70;100.00;101173.03;5095975;28;20486;-61
2022/08/18 04:42:11;;;;;;;15.10;11.40;;;;;;;18.76;100.00;101174.31;5095488;28;20093;-57
2022/08/18 04:44:41;;;;;;;15.20;11.15;;;;;;;18.80;100.00;101170.38;5095484;28;20519;-58
2022/08/18 04:47:11;;;;;;;14.70;11.00;;;;;;;18.82;100.00;101172.88;5095332;28;20052;-57
2022/08/18 04:49:40;;;;;;;12.93;10.40;;;;;;;18.90;100.00;101173.84;5095143;28;20040;-61
2022/08/18 04:55:09;;;;;;;14.48;11.23;;;;;;;18.89;100.00;101174.00;5095522;28;20054;-57
2022/08/18 04:57:41;;;;;;;15.52;11.13;;;;;;;18.91;100.00;101174.69;5095489;28;20546;-56
2022/08/18 05:00:11;;;;;;;16.50;11.55;;;;;;;18.87;100.00;101165.25;5095472;28;20044;-58
2022/08/18 05:02:41;;;;;;;16.30;11.65;;;;;;;18.88;100.00;101166.97;5095780;28;20055;-57
2022/08/18 05:05:12;;;;;;;15.63;11.43;;;;;;;18.91;100.00;101167.53;5095409;28;20040;-58
2022/08/18 05:07:45;;;;;;;14.47;11.87;;;;;;;18.97;100.00;101168.78;5095669;28;20046;-57
2022/08/18 05:10:17;;;;;;;15.18;11.73;;;;;;;18.97;100.00;101162.63;5095445;28;20453;-58
2022/08/18 05:12:47;;;;;;;18.50;12.10;;;;;;;18.94;100.00;101170.88;5095488;28;20449;-58
2022/08/18 05:15:16;;;;;;;16.23;11.93;;;;;;;19.01;100.00;101166.66;5094041;28;20054;-62
2022/08/18 05:17:46;;;;;;;18.05;12.75;;;;;;;19.00;100.00;101170.31;5095585;28;20040;-57
2022/08/18 05:20:19;;;;;;;18.60;12.30;;;;;;;18.95;100.00;101168.09;5095435;28;20424;-57
2022/08/18 05:22:48;;;;;;;17.70;12.43;;;;;;;18.90;100.00;101171.19;5095198;28;20051;-58
2022/08/18 05:25:16;;;;;;;17.77;13.30;;;;;;;18.96;100.00;101177.75;5095084;28;20050;-58
2022/08/18 05:27:44;;;;;;;15.70;12.40;;;;;;;19.02;100.00;101173.66;5095315;28;20051;-58
2022/08/18 05:30:14;;;;;;;18.13;12.15;;;;;;;19.09;100.00;101182.75;5094849;28;20064;-61
2022/08/18 05:32:45;;;;;;;17.83;12.80;;;;;;;19.15;100.00;101182.16;5094941;28;20048;-57
2022/08/18 05:35:23;;;;;;;17.75;12.27;;;;;;;19.23;100.00;101198.22;5094972;28;20055;-57
2022/08/18 05:38:10;;;;;;;20.23;13.75;;;;;;;19.23;100.00;101192.06;5094711;28;20479;-62
2022/08/18 05:40:38;;;;;;;17.40;13.95;;;;;;;19.16;100.00;101188.34;5094577;28;20082;-57
2022/08/18 05:43:08;;;;;;;19.58;14.70;;;;;;;19.05;100.00;101186.69;5093750;28;20132;-63
2022/08/18 05:45:36;;;;;;;17.88;14.10;;;;;;;19.05;100.00;101186.69;5094729;28;20085;-61
2022/08/18 05:48:06;;;;;;;19.17;14.30;;;;;;;18.97;100.00;101190.09;5094774;28;20051;-62
2022/08/18 05:50:37;;;;;;;20.50;15.10;;;;;;;19.02;100.00;101190.50;5094727;28;20054;-62
2022/08/18 05:53:09;;;;;;;20.02;14.40;;;;;;;18.95;100.00;101199.22;5093117;28;20499;-62
2022/08/18 05:58:38;;;;;;;19.33;14.07;;;;;;;19.02;100.00;101195.81;5094532;28;20044;-61
2022/08/18 06:01:12;;;;;;;21.00;13.82;;;;;;;19.09;100.00;101196.06;5094850;28;20086;-61
2022/08/18 06:03:47;;;;;;;22.85;13.45;;;;;;;19.23;100.00;101205.41;5094378;28;20048;-58
2022/08/18 06:06:23;;;;;;;20.13;13.60;;;;;;;19.30;100.00;101206.47;5092785;28;20146;-61
2022/08/18 06:09:01;;;;;;;18.48;13.20;;;;;;;19.45;100.00;101212.16;5094255;28;20479;-58
2022/08/18 06:11:29;;;;;;;16.25;12.50;;;;;;;19.50;100.00;101209.06;5094102;28;20055;-56
2022/08/18 06:13:57;;;;;;;17.20;12.77;;;;;;;19.58;100.00;101206.47;5093839;28;20422;-62
2022/08/18 06:16:48;;;;;;;15.25;11.55;;;;;;;19.64;100.00;101213.03;5094282;28;20060;-62
2022/08/18 06:19:35;;;;;;;18.38;11.38;;;;;;;19.73;100.00;101212.97;5094037;28;20519;-58
2022/08/18 06:22:15;;;;;;;12.77;10.60;;;;;;;19.88;100.00;101213.31;5094196;28;20058;-58
2022/08/18 06:24:52;;;;;;;14.32;10.32;;;;;;;19.92;100.00;101219.19;5093895;28;20055;-58
2022/08/18 06:27:32;;;;;;;14.00;9.73;;;;;;;19.99;100.00;101206.91;5092538;28;20051;-58
2022/08/18 06:30:07;;;;;;;14.38;10.57;;;;;;;20.05;100.00;101214.28;5093766;28;20048;-58
2022/08/18 06:33:03;;;;;;;16.70;10.85;;;;;;;20.13;100.00;101212.72;5093802;28;20094;-62
2022/08/18 06:35:36;;;;;;;16.40;11.10;;;;;;;20.10;100.00;101213.84;5093104;28;20511;-62
2022/08/18 06:38:38;;;;;;;14.52;11.07;;;;;;;20.14;100.00;101207.22;5093150;28;20062;-63
2022/08/18 06:41:13;;;;;;;13.27;10.55;;;;;;;20.26;100.00;101216.66;5093467;28;20044;-63
2022/08/18 06:44:05;;;;;;;15.43;10.73;;;;;;;20.33;100.00;101232.91;5093390;28;20048;-62
2022/08/18 06:46:41;;;;;;;12.47;9.63;;;;;;;20.46;100.00;101226.31;5093276;28;20143;-63
2022/08/18 06:49:14;;;;;;;14.73;10.45;;;;;;;20.52;100.00;101233.69;5093376;28;20352;-62
2022/08/18 06:51:42;;;;;;;14.88;10.00;;;;;;;20.55;100.00;101230.72;5093623;28;20052;-58
2022/08/18 06:57:05;;;;;;;14.30;9.43;;;;;;;20.71;100.00;101235.34;5151027;27;20600;-63
2022/08/18 06:59:35;;;;;;;11.88;9.15;;;;;;;20.72;100.00;101247.72;5150896;27;20089;-59
2022/08/18 07:02:26;;;;;;;13.60;8.85;;;;;;;20.68;100.00;101244.56;5151462;27;20103;-62
2022/08/18 07:05:06;;;;;;;12.75;8.02;;;;;;;20.90;100.00;101240.50;5150925;27;20059;-63
2022/08/18 07:07:37;;;;;;;14.80;8.50;;;;;;;21.05;100.00;101239.91;5151109;27;20050;-63
2022/08/18 07:10:28;;;;;;;13.10;8.68;;;;;;;21.07;100.00;101246.75;5149531;27;20051;-59
2022/08/18 07:13:14;;;;;;;14.50;8.85;;;;;;;21.11;100.00;101236.59;5150871;27;20508;-58
2022/08/18 07:15:44;;;;;;;12.43;8.25;;;;;;;21.29;100.00;101239.19;5151022;27;20046;-58
2022/08/18 07:18:15;;;;;;;13.23;7.63;;;;;;;21.38;100.00;101238.22;5150944;27;20047;-59
2022/08/18 07:20:46;;;;;;;14.10;8.23;;;;;;;21.52;100.00;101233.25;5150983;27;20431;-63
2022/08/18 07:23:26;;;;;;;12.48;8.18;;;;;;;21.63;100.00;101237.50;5150608;27;20055;-63
2022/08/18 07:26:04;;;;;;;13.88;8.63;;;;;;;21.78;100.00;101241.19;5150476;27;20508;-64
2022/08/18 07:28:37;;;;;;;13.07;8.15;;;;;;;21.95;100.00;101242.06;5149304;27;20424;-57
2022/08/18 07:31:14;;;;;;;13.60;8.95;;;;;;;22.05;100.00;101232.03;5150828;27;20142;-57
2022/08/18 07:33:51;;;;;;;12.73;8.00;;;;;;;22.35;100.00;101228.91;5150783;27;20074;-63
2022/08/18 07:36:23;;;;;;;14.50;8.00;;;;;;;22.41;100.00;101223.69;5150396;27;20049;-58
2022/08/18 07:38:56;;;;;;;13.10;6.88;;;;;;;22.43;99.04;101219.00;5150560;27;20039;-58
2022/08/18 07:41:30;;;;;;;9.52;6.65;;;;;;;22.36;98.85;101225.19;5150437;27;20066;-63
2022/08/18 07:44:11;;;;;;;10.57;6.53;;;;;;;22.41;98.08;101229.03;5150772;27;20486;-58
2022/08/18 07:46:46;;;;;;;11.80;6.53;;;;;;;22.34;98.88;101235.22;5150391;27;20161;-57
2022/08/18 07:49:20;;;;;;;10.63;6.20;;;;;;;22.34;97.36;101238.78;5150430;27;20397;-58
2022/08/18 07:51:54;;;;;;;8.07;5.40;;;;;;;22.43;96.18;101243.13;5150155;27;20046;-58
2022/08/18 07:54:36;;;;;;;8.70;4.45;;;;;;;22.56;94.43;101247.13;5150384;27;20050;-59
2022/08/18 07:57:26;;;;;;;7.85;4.75;;;;;;;22.47;94.36;101242.78;5150010;27;20046;-58
2022/08/18 08:00:03;;;;;;;9.13;4.50;;;;;;;22.64;93.31;101249.81;5150039;27;20043;-58
2022/08/18 08:02:50;;;;;;;9.55;4.25;;;;;;;22.83;92.27;101262.00;5183751;27;20053;-57
2022/08/18 08:05:43;;;;;;;10.15;5.10;;;;;;;23.03;92.98;101251.72;5150014;27;20078;-64
2022/08/18 08:08:21;;;;;;;13.27;5.65;;;;;;;23.37;90.98;101256.00;5137299;27;20057;-58
2022/08/18 08:11:07;;;;;;;8.82;4.50;;;;;;;23.66;91.05;101254.50;5136036;27;20047;-57
2022/08/18 08:13:51;;;;;;;7.90;4.15;;;;;;;23.94;86.44;101254.88;5135985;27;20513;-65
2022/08/18 08:16:36;;;;;;;9.35;4.90;;;;;;;24.18;87.49;101236.91;5136017;27;20035;-63
2022/08/18 08:19:30;;;;;;;9.07;4.85;;;;;;;24.48;88.18;101240.47;5135521;27;20043;-58
2022/08/18 08:22:22;;;;;;;10.60;4.80;;;;;;;24.66;86.83;101246.59;5135451;27;20047;-58
2022/08/18 08:25:00;;;;;;;8.85;4.30;;;;;;;24.71;82.84;101246.88;5135969;27;20138;-65
2022/08/18 08:27:39;;;;;;;7.45;4.00;;;;;;;24.57;81.37;101251.16;5135760;27;20516;-59
2022/08/18 08:30:12;;;;;;;8.68;4.20;;;;;;;24.20;82.60;101250.13;5136071;27;20047;-58
2022/08/18 08:32:55;;;;;;;8.68;4.50;;;;;;;24.16;84.25;101249.69;5135485;27;20043;-67
2022/08/18 08:35:37;;;;;;;7.35;4.15;;;;;;;24.15;84.14;101250.69;5135650;27;20058;-65
2022/08/18 08:38:23;;;;;;;8.52;4.55;;;;;;;24.36;83.71;101250.00;5136178;27;20548;-65
2022/08/18 08:41:18;;;;;;;6.78;4.15;;;;;;;24.12;83.85;101251.88;5135428;27;20046;-58
2022/08/18 08:43:53;;;;;;;6.00;3.67;;;;;;;24.20;85.24;101248.31;5135558;27;20047;-64
2022/08/18 08:46:25;;;;;;;8.85;3.88;;;;;;;24.35;84.04;101244.81;5135630;27;20047;-59
2022/08/18 08:49:01;;;;;;;11.55;4.30;;;;;;;24.44;82.55;101247.25;5134182;27;20055;-58
2022/08/18 08:51:35;;;;;;;9.02;4.15;;;;;;;24.82;81.32;101243.72;5135577;27;20541;-65
2022/08/18 08:54:10;;;;;;;8.30;4.05;;;;;;;24.97;78.16;101244.56;5135237;27;20130;-62
2022/08/18 08:56:44;;;;;;;7.60;3.53;;;;;;;25.30;74.79;101246.03;5134922;27;20166;-65
2022/08/18 08:59:14;;;;;;;9.18;3.58;;;;;;;25.48;77.22;101243.81;5135211;27;20043;-67
2022/08/18 09:01:52;;;;;;;6.28;3.55;;;;;;;25.89;76.12;101252.31;5135065;27;20047;-66
2022/08/18 09:04:42;;;;;;;7.93;3.55;;;;;;;26.25;72.90;101254.97;5135130;27;20041;-67
2022/08/18 09:07:59;;;;;;;9.25;3.63;;;;;;;26.22;71.51;101254.50;5135041;27;20031;-66
2022/08/18 09:10:51;;;;;;;6.47;3.50;;;;;;;25.86;73.26;101250.00;5134790;27;20067;-58
2022/08/18 09:13:43;;;;;;;8.25;3.88;;;;;;;25.49;73.63;101250.00;5132120;27;20055;-68
2022/08/18 09:16:24;;;;;;;8.33;4.23;;;;;;;25.33;74.45;101259.13;5133321;27;20043;-67
2022/08/18 09:19:14;;;;;;;7.10;3.70;;;;;;;25.51;73.67;101257.91;5133708;27;20054;-67
2022/08/18 09:21:49;;;;;;;7.45;3.65;;;;;;;25.61;71.86;101258.44;5134855;27;20055;-67
2022/08/18 09:24:24;;;;;;;8.77;4.00;;;;;;;25.65;71.07;101255.16;5134595;27;20058;-67
2022/08/18 09:27:12;;;;;;;7.20;3.78;;;;;;;25.74;73.72;101258.59;5134300;27;20039;-67
2022/08/18 09:29:50;;;;;;;6.45;3.67;;;;;;;25.70;75.19;101256.44;5134715;27;20038;-58
2022/08/18 09:32:49;;;;;;;6.72;3.63;;;;;;;25.76;71.75;101253.00;5134736;27;20521;-67
2022/08/18 09:35:42;;;;;;;9.60;3.63;;;;;;;25.95;69.57;101255.06;5134460;27;20047;-57
2022/08/18 09:44:09;;;;;;;7.32;3.80;;;;;;;25.98;72.88;101264.63;5134339;27;20047;-59
2022/08/18 09:46:59;;;;;;;8.00;3.63;;;;;;;26.23;73.44;101261.56;5134155;27;20096;-67
2022/08/18 09:49:45;;;;;;;9.73;4.30;;;;;;;26.26;71.11;101256.66;5134493;27;20058;-68
2022/08/18 09:52:48;;;;;;;9.63;3.92;;;;;;;26.34;70.65;101252.97;5134103;27;20047;-58
2022/08/18 09:55:54;;;;;;;6.00;3.95;;;;;;;26.40;69.73;101246.81;5133446;27;20079;-69
2022/08/18 09:58:54;;;;;;;7.65;3.90;;;;;;;26.44;68.69;101239.97;5093262;28;20032;-57
2022/08/18 10:01:41;;;;;;;6.78;3.50;;;;;;;26.39;70.77;101242.44;5092939;28;20544;-67
2022/08/18 10:04:31;;;;;;;6.85;4.32;;;;;;;26.32;70.75;101247.75;5092877;28;20044;-59
2022/08/18 10:07:30;;;;;;;7.88;4.65;;;;;;;26.01;72.12;101252.63;5092839;28;20043;-68
2022/08/18 10:10:23;;;;;;;10.10;4.82;;;;;;;25.77;72.84;101252.00;5092830;28;20050;-58
2022/08/18 10:13:21;;;;;;;6.70;4.55;;;;;;;25.74;74.08;101252.34;5092634;28;20044;-67
2022/08/18 10:16:09;;;;;;;6.95;4.03;;;;;;;25.60;73.59;101248.69;5093068;28;20050;-67
2022/08/18 10:18:54;;;;;;;6.72;4.13;;;;;;;25.88;73.16;101248.78;5092561;28;20044;-64
2022/08/18 10:21:27;;;;;;;12.48;5.40;;;;;;;25.80;71.70;101252.44;5092904;28;20040;-58
2022/08/18 10:24:13;;;;;;;6.90;4.43;;;;;;;25.65;73.83;101243.56;5091649;28;20060;-59
2022/08/18 10:27:04;;;;;;;7.70;5.13;;;;;;;25.76;72.10;101250.31;5092737;28;20067;-59
2022/08/18 10:29:58;;;;;;;7.88;4.68;;;;;;;25.70;72.14;101246.53;5074960;28;20056;-69
2022/08/18 10:32:44;;;;;;;9.80;4.88;;;;;;;25.75;72.02;101241.38;5090719;28;20060;-69
2022/08/18 10:35:56;;;;;;;9.50;4.45;;;;;;;25.83;75.00;101245.00;5092455;28;20060;-68
2022/08/18 10:38:52;;;;;;;8.43;4.40;;;;;;;26.03;71.22;101232.59;5092309;28;20047;-59
2022/08/18 10:41:27;;;;;;;7.32;4.50;;;;;;;26.06;71.21;101242.97;5091181;28;20147;-58
2022/08/18 10:43:59;;;;;;;10.25;4.70;;;;;;;26.15;70.59;101246.38;5092644;28;20051;-58
2022/08/18 10:46:35;;;;;;;9.52;4.68;;;;;;;26.07;71.37;101247.34;5092436;28;20131;-58
2022/08/18 10:49:22;;;;;;;11.18;5.03;;;;;;;26.01;71.27;101253.47;5092328;28;20071;-59
2022/08/18 10:52:12;;;;;;;8.77;4.88;;;;;;;26.06;72.44;101242.16;5092226;28;20484;-68
2022/08/18 10:55:01;;;;;;;8.20;4.57;;;;;;;25.89;71.56;101244.22;5092408;28;20055;-60
2022/08/18 10:57:39;;;;;;;9.85;5.07;;;;;;;25.81;71.74;101243.34;5123745;28;20495;-60
2022/08/18 11:00:12;;;;;;;7.47;4.55;;;;;;;25.80;72.64;101247.03;5133203;27;20046;-67
2022/08/18 11:03:00;;;;;;;8.27;4.85;;;;;;;25.88;70.86;101247.94;5133067;27;20045;-69
2022/08/18 11:05:48;;;;;;;7.70;4.60;;;;;;;25.80;71.58;101252.44;5132236;28;20043;-68
2022/08/18 11:08:20;;;;;;;6.88;4.75;;;;;;;25.81;70.54;101254.09;5131592;28;20134;-68
2022/08/18 11:10:50;;;;;;;6.90;4.35;;;;;;;25.94;71.13;101255.25;5132856;28;20072;-59
2022/08/18 11:13:51;;;;;;;8.35;4.72;;;;;;;26.01;70.87;101250.78;5132744;27;20416;-67
2022/08/18 11:16:32;;;;;;;8.18;4.40;;;;;;;26.14;73.35;101256.31;5133086;27;20081;-68
2022/08/18 11:19:09;;;;;;;7.97;4.25;;;;;;;26.30;69.15;101251.69;5133188;27;20046;-58
2022/08/18 11:21:41;;;;;;;7.15;4.65;;;;;;;26.12;69.78;101249.44;5132657;28;20163;-67
2022/08/18 11:24:16;;;;;;;7.03;4.28;;;;;;;26.12;68.45;101246.75;5132979;28;20394;-66
2022/08/18 11:26:48;;;;;;;7.45;4.15;;;;;;;26.23;71.05;101238.16;5132938;28;20541;-65
2022/08/18 11:29:32;;;;;;;7.72;4.18;;;;;;;26.28;70.08;101238.41;5132443;28;20088;-57
2022/08/18 11:32:07;;;;;;;7.78;4.32;;;;;;;26.34;68.91;101235.97;5132444;27;20498;-69
2022/08/18 11:34:43;;;;;;;6.93;4.50;;;;;;;26.42;68.52;101241.22;5132702;28;20051;-60
2022/08/18 11:37:25;;;;;;;8.48;4.70;;;;;;;26.24;66.42;101230.91;5165855;27;20039;-68
2022/08/18 11:39:57;;;;;;;9.27;4.05;;;;;;;26.12;69.43;101228.75;5133124;27;20104;-67
2022/08/18 11:42:29;;;;;;;8.80;4.75;;;;;;;26.04;68.38;101218.09;5133858;27;20452;-68
2022/08/18 11:45:05;;;;;;;;;;;;;;;26.10;67.71;101230.78;5137040;27;20057;-60
2022/08/18 11:47:38;;;;;;;6.82;4.25;;;;;;;26.13;68.22;101222.31;5136696;27;19920;-60
2022/08/18 11:50:11;;;;;;;9.18;4.82;;;;;;;26.17;67.83;101219.25;5137016;27;20047;-59
2022/08/18 11:52:49;;;;;;;8.48;4.22;;;;;;;26.02;69.52;101224.69;5136889;27;20051;-68
2022/08/18 11:55:28;;;;;;;8.07;4.60;;;;;;;25.87;68.30;101220.19;5136311;27;20509;-59
2022/08/18 11:57:58;;;;;;;8.45;3.90;;;;;;;26.02;68.60;101222.84;5135990;27;20409;-69
2022/08/18 12:00:55;;;;;;;9.35;4.35;;;;;;;26.20;68.72;101214.28;5136405;27;20050;-67
2022/08/18 12:03:39;;;;;;;8.35;4.53;;;;;;;26.03;68.03;101205.66;5122687;27;20054;-68
2022/08/18 12:06:29;;;;;;;9.07;4.85;;;;;;;26.19;68.06;101195.63;5136199;27;20051;-58
2022/08/18 12:09:01;;;;;;;8.05;4.10;;;;;;;26.47;68.45;101193.75;5136092;27;20134;-67
2022/08/18 12:11:35;;;;;;;7.20;4.30;;;;;;;26.62;67.47;101192.81;5136291;27;20084;-67